Healdton, OK

9:50 AM CDT on September 02, 2014 (GMT -0500)
Pauls Valley Municipal | Change Station
CLOSE
Current Station
Airport
Location: Pauls Valley,
Elevation: 968 ft
Nearby Weather Stations

Elev 968 ft 34.71 °N, 97.22 °W | Updated 15 minutes ago

Scattered Clouds
Scattered Clouds
82 °F
Feels Like 85 °F
N
0
Wind Variable Wind from North

Today
High -- | Low -- °F
--% Chance of Precip.
Yesterday
High -- | Low -- °F
Precip. -- in
7:04 AM 7:54 PM
First Quarter, 52% visible
Pressure 29.99 in
Visibility 10.0 miles
Clouds Scattered Clouds 3800 ft
Scattered Clouds 4800 ft
Scattered Clouds 8500 ft
Heat Index 85 °F
Dew Point 69 °F
Humidity 66%
Rainfall 0.00 in
Snow Depth Not available.
UV 3 out of 12
Pollen 11.20 out of 12
Air Quality Not available.
Flu Activity Not available.
METAR KPVJ 021435Z AUTO 00000KT 10SM SCT038 SCT048 SCT085 28/21 A2999 RMK AO2 LTG DSNT N AND NE T02750207

More Conditions Fewer Conditions

Pressure 29.99 in
Visibility 10.0 miles
Clouds Scattered Clouds 3800 ft
Scattered Clouds 4800 ft
Scattered Clouds 8500 ft
Heat Index 85 °F
Dew Point 69 °F
Humidity 66%
Rainfall 0.00 in
Snow Depth Not available.
UV 3 out of 12
Pollen 11.20 out of 12
Air Quality Not available.
Flu Activity Not available.
METAR KPVJ 021435Z AUTO 00000KT 10SM SCT038 SCT048 SCT085 28/21 A2999 RMK AO2 LTG DSNT N AND NE T02750207

More Conditions Fewer Conditions

10-Day Weather Forecast

Almanac

Astronomy

Sep. 02, 2014 Rise Set
Actual Time 7:04 AM CDT 7:54 PM CDT
Civil Twilight 6:38 AM CDT 8:20 PM CDT
Nautical Twilight 6:08 AM CDT 8:50 PM CDT
Astronomical Twilight 5:37 AM CDT 9:21 PM CDT
Moon 2:31 PM CDT 12:16 AM CDT
Length of Visible Light 13h 41m
Length of Day
12h 50m
Tomorrow will be 2m 3s shorter.
First Quarter, 52% of the Moon is Illuminated
Today
First Quarter
Sep 8
Full
Sep 15
Last Quarter
Sep 24
New
Oct 1
First Quarter

Today's Extremes

State Highs State Lows

Community

WunderPhotos

Upload Photos

1,749,682 photos uploaded!

WunderBlogs® & News

Nearby

Snow Depth

Station Depth Elevation
No new snow has been reported.

Earthquake Activity

City Distance Mag. Time & Date
Perry, Oklahoma 135 miles 3.1 6:46 AM CDT
2014-09-01
Jones, Oklahoma 95 miles 3.1 1:49 PM CDT
2014-08-31
Minimum magnitude displayed is 2.5.

Coastal Water Temperatures

Place Temperature
No Stations Reporting

Nearby Weather Stations